createdAt,value
2019-05-13T00:00:23.510Z,17.12
2019-05-13T00:02:55.486Z,17.67
2019-05-13T00:05:27.812Z,15.80
2019-05-13T00:08:00.410Z,16.65
2019-05-13T00:10:34.975Z,17.25
2019-05-13T00:13:07.551Z,17.37
2019-05-13T00:15:40.320Z,18.10
2019-05-13T00:18:14.475Z,16.80
2019-05-13T00:20:46.534Z,17.20
2019-05-13T00:23:19.191Z,16.27
2019-05-13T00:25:51.579Z,16.05
2019-05-13T00:28:24.102Z,18.42
2019-05-13T00:30:56.850Z,16.75
2019-05-13T00:33:29.583Z,16.52
2019-05-13T00:36:03.787Z,16.65
2019-05-13T00:38:35.217Z,15.75
2019-05-13T00:41:07.575Z,16.80
2019-05-13T00:43:41.217Z,15.18
2019-05-13T00:46:14.206Z,16.60
2019-05-13T00:48:46.849Z,16.02
2019-05-13T00:51:19.535Z,16.25
2019-05-13T00:53:53.522Z,14.53
2019-05-13T00:56:25.496Z,15.28
2019-05-13T00:58:57.974Z,15.25
2019-05-13T01:01:39.180Z,22.17
2019-05-13T01:04:11.573Z,15.95
2019-05-13T01:06:43.851Z,17.75
2019-05-13T01:09:16.825Z,15.78
2019-05-13T01:11:49.425Z,15.10
2019-05-13T01:14:23.514Z,15.48
2019-05-13T01:16:55.216Z,14.75
2019-05-13T01:19:30.650Z,15.28
2019-05-13T01:22:03.724Z,16.27
2019-05-13T01:24:35.800Z,15.63
2019-05-13T01:27:08.003Z,17.80
2019-05-13T01:32:20.308Z,15.53
2019-05-13T01:34:53.838Z,14.63
2019-05-13T01:37:39.184Z,14.68
2019-05-13T01:40:01.308Z,13.80
2019-05-13T01:42:33.762Z,14.25
2019-05-13T01:45:16.735Z,14.90
2019-05-13T01:47:57.840Z,14.93
2019-05-13T01:50:41.084Z,16.60
2019-05-13T01:53:14.885Z,15.00
2019-05-13T01:55:47.363Z,14.35
2019-05-13T01:58:20.283Z,15.60
2019-05-13T02:01:05.126Z,16.50
2019-05-13T02:03:37.538Z,16.00
2019-05-13T02:06:14.124Z,14.45
2019-05-13T02:08:57.491Z,14.30
2019-05-13T02:11:29.744Z,13.78
2019-05-13T02:14:20.984Z,13.62
2019-05-13T02:16:54.584Z,12.00
2019-05-13T02:19:27.062Z,11.63
2019-05-13T02:22:04.215Z,13.18
2019-05-13T02:24:36.608Z,13.58
2019-05-13T02:27:08.657Z,13.98
2019-05-13T02:29:40.843Z,13.00
2019-05-13T02:32:14.010Z,13.10
2019-05-13T02:34:46.579Z,12.28
2019-05-13T02:37:22.875Z,10.75
2019-05-13T02:39:53.594Z,11.75
2019-05-13T02:42:26.067Z,11.75
2019-05-13T02:44:58.545Z,10.78
2019-05-13T02:47:33.026Z,11.30
2019-05-13T02:50:05.471Z,11.35
2019-05-13T02:52:40.159Z,11.12
2019-05-13T02:55:12.951Z,10.45
2019-05-13T02:57:44.915Z,11.45
2019-05-13T03:00:23.436Z,9.48
2019-05-13T03:02:53.896Z,10.85
2019-05-13T03:05:26.397Z,11.03
2019-05-13T03:07:58.553Z,11.20
2019-05-13T03:10:38.808Z,10.80
2019-05-13T03:13:12.611Z,10.30
2019-05-13T03:15:47.422Z,8.48
2019-05-13T03:18:33.403Z,9.10
2019-05-13T03:21:07.072Z,11.85
2019-05-13T03:23:58.199Z,10.70
2019-05-13T03:26:32.212Z,11.50
2019-05-13T03:29:07.701Z,10.40
2019-05-13T03:31:45.588Z,10.00
2019-05-13T03:34:18.921Z,9.20
2019-05-13T03:36:57.032Z,8.40
2019-05-13T03:39:27.583Z,8.55
2019-05-13T03:42:03.093Z,8.33
2019-05-13T03:44:36.182Z,8.38
2019-05-13T03:47:12.730Z,7.62
2019-05-13T03:49:48.328Z,8.03
2019-05-13T03:52:22.500Z,7.37
2019-05-13T03:55:08.213Z,8.63
2019-05-13T03:57:42.592Z,6.97
2019-05-13T04:00:15.108Z,7.67
2019-05-13T04:02:47.721Z,7.28
2019-05-13T04:05:23.053Z,7.87
2019-05-13T04:07:54.779Z,8.23
2019-05-13T04:10:27.148Z,7.42
2019-05-13T04:12:59.376Z,7.08
2019-05-13T04:15:32.925Z,6.00
2019-05-13T04:18:05.360Z,8.40
2019-05-13T04:20:38.096Z,11.12
2019-05-13T04:23:12.895Z,12.18
2019-05-13T04:25:45.055Z,8.10
2019-05-13T04:28:22.227Z,7.22
2019-05-13T04:30:55.010Z,6.80
2019-05-13T04:33:27.249Z,6.03
2019-05-13T04:36:02.459Z,6.87
2019-05-13T04:38:34.074Z,5.30
2019-05-13T04:41:06.109Z,5.22
2019-05-13T04:43:38.081Z,4.60
2019-05-13T04:46:13.577Z,5.17
2019-05-13T04:49:02.998Z,5.58
2019-05-13T04:51:35.683Z,6.42
2019-05-13T04:54:08.124Z,5.87
2019-05-13T04:56:42.154Z,5.72
2019-05-13T04:59:14.690Z,5.28
2019-05-13T05:01:55.324Z,5.83
2019-05-13T05:04:30.757Z,4.67
2019-05-13T05:07:04.884Z,5.20
2019-05-13T05:10:21.191Z,7.03
2019-05-13T05:15:12.848Z,7.95
2019-05-13T05:18:06.410Z,7.72
2019-05-13T05:20:42.905Z,7.45
2019-05-13T05:23:21.438Z,6.87
2019-05-13T05:28:31.929Z,5.25
2019-05-13T05:31:07.431Z,5.85
2019-05-13T05:34:06.264Z,6.40
2019-05-13T05:36:38.576Z,10.23
2019-05-13T05:39:14.285Z,6.90
2019-05-13T05:41:48.792Z,7.03
2019-05-13T05:44:24.262Z,7.20
2019-05-13T05:47:02.847Z,5.58
2019-05-13T05:49:35.638Z,7.30
2019-05-13T05:52:09.377Z,8.90
2019-05-13T05:54:42.857Z,6.40
2019-05-13T05:57:16.217Z,6.58
2019-05-13T05:59:51.047Z,6.87
2019-05-13T06:02:25.355Z,5.35
2019-05-13T06:05:02.441Z,5.90
2019-05-13T06:07:36.592Z,6.80
2019-05-13T06:10:13.478Z,5.85
2019-05-13T06:12:53.094Z,5.55
2019-05-13T06:15:26.164Z,5.42
2019-05-13T06:17:58.326Z,5.00
2019-05-13T06:20:31.720Z,5.25
2019-05-13T06:23:04.254Z,4.70
2019-05-13T06:25:43.094Z,5.75
2019-05-13T06:28:15.230Z,5.30
2019-05-13T06:31:06.779Z,4.80
2019-05-13T06:33:42.173Z,3.80
2019-05-13T06:36:14.580Z,4.90
2019-05-13T06:38:47.575Z,6.12
2019-05-13T06:41:22.064Z,7.20
2019-05-13T06:44:21.385Z,6.37
2019-05-13T06:46:53.783Z,7.62
2019-05-13T06:49:25.950Z,8.23
2019-05-13T06:51:57.939Z,7.58
2019-05-13T06:54:32.527Z,7.20
2019-05-13T06:57:05.860Z,7.60
2019-05-13T06:59:41.955Z,6.33
2019-05-13T07:02:15.451Z,6.28
2019-05-13T07:04:47.567Z,6.95
2019-05-13T07:07:21.877Z,6.85
2019-05-13T07:09:56.437Z,6.97
2019-05-13T07:12:31.251Z,6.40
2019-05-13T07:15:03.231Z,6.33
2019-05-13T07:17:35.265Z,7.10
2019-05-13T07:20:11.983Z,6.40
2019-05-13T07:22:47.241Z,6.67
2019-05-13T07:25:22.042Z,7.67
2019-05-13T07:27:54.132Z,8.10
2019-05-13T07:30:31.647Z,8.45
2019-05-13T07:33:03.387Z,6.72
2019-05-13T07:35:37.813Z,7.42
2019-05-13T07:38:11.765Z,7.97
2019-05-13T07:40:44.133Z,7.85
2019-05-13T07:43:16.695Z,8.08
2019-05-13T07:45:51.587Z,7.42
2019-05-13T07:48:27.889Z,7.62
2019-05-13T07:51:07.307Z,8.10
2019-05-13T07:53:42.397Z,8.15
2019-05-13T07:56:13.568Z,7.08
2019-05-13T07:58:53.056Z,8.28
2019-05-13T08:01:25.625Z,8.53
2019-05-13T08:03:57.674Z,8.05
2019-05-13T08:06:36.922Z,8.05
2019-05-13T08:09:28.868Z,7.85
2019-05-13T08:12:10.492Z,7.40
2019-05-13T08:14:43.209Z,7.03
2019-05-13T08:17:12.494Z,8.43
2019-05-13T08:19:44.576Z,7.55
2019-05-13T08:22:17.935Z,8.40
2019-05-13T08:24:52.007Z,7.97
2019-05-13T08:27:30.551Z,6.70
2019-05-13T08:29:57.786Z,6.65
2019-05-13T08:32:31.469Z,6.37
2019-05-13T08:35:09.014Z,5.08
2019-05-13T08:37:38.358Z,5.20
2019-05-13T08:40:12.072Z,5.62
2019-05-13T08:42:58.115Z,6.10
2019-05-13T08:45:31.449Z,5.33
2019-05-13T08:48:08.217Z,6.45
2019-05-13T08:50:43.463Z,5.20
2019-05-13T08:53:18.398Z,6.12
2019-05-13T08:55:56.144Z,7.00
2019-05-13T08:58:32.271Z,6.95
2019-05-13T09:01:12.433Z,6.80
2019-05-13T09:03:44.166Z,6.05
2019-05-13T09:06:17.547Z,6.65
2019-05-13T09:08:53.545Z,7.20
2019-05-13T09:11:23.002Z,6.78
2019-05-13T09:13:55.172Z,7.00
2019-05-13T09:16:31.979Z,6.65
2019-05-13T09:19:04.381Z,6.20
2019-05-13T09:21:42.127Z,6.40
2019-05-13T09:24:26.021Z,6.20
2019-05-13T09:26:52.891Z,6.62
2019-05-13T09:29:25.181Z,5.80
2019-05-13T09:31:57.519Z,6.95
2019-05-13T09:34:42.182Z,6.15
2019-05-13T09:37:36.823Z,6.78
2019-05-13T09:40:11.492Z,6.92
2019-05-13T09:42:49.190Z,5.58
2019-05-13T09:45:17.552Z,7.22
2019-05-13T09:47:49.475Z,7.40
2019-05-13T09:50:35.841Z,6.40
2019-05-13T09:53:05.113Z,7.15
2019-05-13T09:55:41.335Z,7.15
2019-05-13T09:58:15.588Z,10.20
2019-05-13T10:00:48.732Z,7.37
2019-05-13T10:03:29.146Z,7.60
2019-05-13T10:05:58.154Z,7.58
2019-05-13T10:08:32.629Z,8.33
2019-05-13T10:11:13.678Z,7.67
2019-05-13T10:13:45.653Z,8.85
2019-05-13T10:16:22.083Z,6.75
2019-05-13T10:18:55.293Z,7.78
2019-05-13T10:21:27.696Z,8.03
2019-05-13T10:23:59.802Z,6.85
2019-05-13T10:26:32.359Z,6.65
2019-05-13T10:29:24.291Z,6.92
2019-05-13T10:31:56.592Z,7.50
2019-05-13T10:34:28.730Z,8.08
2019-05-13T10:37:02.553Z,8.75
2019-05-13T10:39:35.327Z,10.30
2019-05-13T10:42:07.332Z,10.28
2019-05-13T10:44:42.235Z,10.85
2019-05-13T10:47:13.640Z,11.73
2019-05-13T10:49:46.491Z,8.80
2019-05-13T10:52:18.513Z,10.70
2019-05-13T10:54:52.662Z,12.07
2019-05-13T10:57:24.143Z,12.80
2019-05-13T10:59:59.717Z,13.58
2019-05-13T11:02:32.750Z,12.53
2019-05-13T11:05:03.908Z,10.53
2019-05-13T11:07:36.158Z,9.90
2019-05-13T11:10:09.680Z,9.88
2019-05-13T11:12:41.926Z,8.98
2019-05-13T11:15:14.346Z,9.93
2019-05-13T11:17:47.065Z,9.65
2019-05-13T11:20:22.086Z,9.48
2019-05-13T11:22:53.458Z,9.53
2019-05-13T11:25:25.708Z,9.53
2019-05-13T11:27:58.555Z,8.45
2019-05-13T11:30:32.097Z,9.13
2019-05-13T11:33:09.902Z,8.98
2019-05-13T11:35:58.332Z,9.40
2019-05-13T11:38:32.698Z,9.75
2019-05-13T11:41:24.132Z,10.05
2019-05-13T11:46:32.466Z,10.43
2019-05-13T11:49:03.531Z,11.20
2019-05-13T11:51:36.346Z,12.33
2019-05-13T11:54:08.776Z,11.97
2019-05-13T11:56:48.942Z,13.75
2019-05-13T11:59:14.988Z,13.45
2019-05-13T12:01:48.255Z,14.20
2019-05-13T12:04:24.172Z,14.75
2019-05-13T12:06:54.882Z,13.32
2019-05-13T12:09:27.486Z,17.23
2019-05-13T12:12:03.651Z,14.45
2019-05-13T12:14:56.582Z,16.70
2019-05-13T12:17:14.232Z,17.50
2019-05-13T12:19:44.317Z,27.15
2019-05-13T12:22:16.295Z,26.23
2019-05-13T12:24:48.692Z,21.48
2019-05-13T12:27:24.965Z,21.10
2019-05-13T12:29:57.095Z,23.02
2019-05-13T12:32:43.475Z,23.00
2019-05-13T12:35:13.799Z,18.82
2019-05-13T12:37:46.551Z,16.62
2019-05-13T12:40:23.098Z,13.10
2019-05-13T12:42:55.512Z,12.33
2019-05-13T12:45:48.280Z,12.37
2019-05-13T12:48:23.001Z,12.98
2019-05-13T12:50:54.632Z,17.05
2019-05-13T12:53:26.901Z,15.98
2019-05-13T12:56:02.840Z,16.50
2019-05-13T12:58:34.004Z,16.65
2019-05-13T13:01:06.927Z,15.28
2019-05-13T13:03:39.062Z,13.85
2019-05-13T13:06:27.086Z,14.28
2019-05-13T13:08:49.311Z,14.18
2019-05-13T13:11:19.330Z,17.17
2019-05-13T13:13:58.915Z,14.85
2019-05-13T13:16:34.038Z,17.00
2019-05-13T13:19:02.503Z,19.30
2019-05-13T13:21:37.649Z,18.92
2019-05-13T13:24:08.128Z,18.50
2019-05-13T13:26:42.407Z,20.85
2019-05-13T13:29:13.858Z,25.52
2019-05-13T13:31:46.301Z,25.27
2019-05-13T13:34:18.955Z,23.18
2019-05-13T13:36:52.672Z,24.98
2019-05-13T13:39:25.684Z,21.77
2019-05-13T13:41:58.352Z,18.75
2019-05-13T13:44:34.946Z,16.65
2019-05-13T13:47:05.740Z,16.17
2019-05-13T13:49:38.385Z,17.57
2019-05-13T13:52:16.070Z,18.12
2019-05-13T13:54:47.267Z,28.07
2019-05-13T13:57:19.291Z,22.37
2019-05-13T14:02:27.267Z,21.10
2019-05-13T14:05:04.871Z,19.37
2019-05-13T14:06:29.231Z,9.40
2019-05-13T14:07:38.460Z,18.55
2019-05-13T14:10:11.662Z,17.10
2019-05-13T14:12:43.943Z,17.35
2019-05-13T14:15:16.712Z,18.80
2019-05-13T14:17:51.409Z,14.85
2019-05-13T14:20:23.612Z,15.72
2019-05-13T14:22:58.085Z,15.45
2019-05-13T14:25:32.304Z,16.32
2019-05-13T14:28:03.465Z,18.17
2019-05-13T14:30:35.725Z,22.75
2019-05-13T14:33:08.240Z,19.65
2019-05-13T14:35:41.616Z,15.32
2019-05-13T14:38:14.316Z,12.18
2019-05-13T14:40:47.664Z,14.70
2019-05-13T14:43:22.917Z,12.20
2019-05-13T14:45:54.015Z,10.68
2019-05-13T14:48:26.480Z,3.87
2019-05-13T14:50:59.817Z,2.58
2019-05-13T14:53:32.893Z,2.72
2019-05-13T14:56:04.920Z,2.58
2019-05-13T14:58:36.904Z,2.27
2019-05-13T15:01:15.817Z,2.60
2019-05-13T15:03:42.696Z,1.87
2019-05-13T15:06:16.416Z,1.30
2019-05-13T15:08:48.441Z,1.05
2019-05-13T15:11:21.961Z,0.78
2019-05-13T15:13:55.267Z,1.22
2019-05-13T15:16:27.650Z,0.98
2019-05-13T15:19:01.496Z,1.75
2019-05-13T15:21:34.104Z,1.02
2019-05-13T15:24:06.440Z,1.62
2019-05-13T15:26:38.447Z,1.42
2019-05-13T15:29:11.397Z,1.02
2019-05-13T15:31:43.772Z,0.60
2019-05-13T15:34:15.714Z,1.02
2019-05-13T15:36:47.770Z,0.70
2019-05-13T15:39:19.633Z,1.45
2019-05-13T15:41:52.496Z,1.82
2019-05-13T15:44:24.556Z,1.25
2019-05-13T15:46:59.431Z,1.22
2019-05-13T15:49:32.372Z,0.90
2019-05-13T15:52:04.566Z,1.05
2019-05-13T15:54:36.520Z,1.00
2019-05-13T15:57:08.581Z,0.95
2019-05-13T15:59:41.494Z,1.85
2019-05-13T16:02:13.713Z,0.80
2019-05-13T16:04:52.070Z,0.90
2019-05-13T16:07:19.466Z,1.07
2019-05-13T16:09:52.620Z,1.50
2019-05-13T16:12:25.010Z,0.88
2019-05-13T16:14:57.142Z,1.35
2019-05-13T16:17:38.712Z,0.98
2019-05-13T16:20:03.832Z,0.90
2019-05-13T16:22:35.909Z,0.90
2019-05-13T16:25:10.542Z,1.17
2019-05-13T16:27:42.713Z,1.57
2019-05-13T16:30:16.302Z,0.90
2019-05-13T16:32:48.507Z,0.95
2019-05-13T16:35:21.466Z,1.52
2019-05-13T16:37:53.777Z,1.07
2019-05-13T16:40:26.028Z,1.27
2019-05-13T16:42:58.036Z,1.20
2019-05-13T16:45:31.553Z,1.57
2019-05-13T16:48:05.800Z,0.95
2019-05-13T16:50:37.953Z,1.30
2019-05-13T16:53:11.140Z,1.45
2019-05-13T16:55:43.209Z,1.12
2019-05-13T16:58:15.661Z,0.82
2019-05-13T17:00:48.502Z,1.45
2019-05-13T17:03:21.175Z,1.00
2019-05-13T17:05:53.435Z,0.95
2019-05-13T17:08:25.696Z,0.90
2019-05-13T17:10:57.443Z,1.10
2019-05-13T17:13:34.475Z,0.80
2019-05-13T17:16:06.823Z,1.00
2019-05-13T17:18:41.504Z,0.80
2019-05-13T17:21:13.204Z,1.10
2019-05-13T17:23:45.388Z,1.22
2019-05-13T17:26:17.543Z,0.75
2019-05-13T17:28:51.785Z,1.17
2019-05-13T17:31:23.724Z,0.85
2019-05-13T17:33:55.660Z,2.00
2019-05-13T17:36:27.684Z,1.80
2019-05-13T17:39:01.850Z,2.05
2019-05-13T17:41:33.451Z,1.15
2019-05-13T17:44:05.694Z,1.90
2019-05-13T17:46:37.779Z,1.15
2019-05-13T17:49:11.844Z,1.40
2019-05-13T17:51:43.567Z,1.55
2019-05-13T17:54:15.610Z,2.42
2019-05-13T17:56:48.572Z,1.30
2019-05-13T17:59:21.808Z,1.20
2019-05-13T18:01:54.084Z,1.98
2019-05-13T18:04:26.333Z,1.35
2019-05-13T18:07:01.695Z,1.60
2019-05-13T18:09:34.058Z,1.12
2019-05-13T18:12:06.439Z,1.95
2019-05-13T18:14:41.188Z,1.75
2019-05-13T18:17:13.204Z,1.65
2019-05-13T18:19:45.309Z,1.72
2019-05-13T18:22:17.357Z,1.45
2019-05-13T18:24:51.886Z,1.62
2019-05-13T18:27:23.015Z,1.70
2019-05-13T18:29:55.298Z,1.65
2019-05-13T18:32:27.171Z,1.65
2019-05-13T18:35:01.464Z,2.65
2019-05-13T18:37:51.934Z,2.47
2019-05-13T18:40:25.474Z,2.12
2019-05-13T18:43:01.971Z,2.85
2019-05-13T18:45:34.057Z,3.10
2019-05-13T18:48:06.443Z,2.95
2019-05-13T18:50:38.468Z,3.05
2019-05-13T18:53:10.836Z,4.37
2019-05-13T18:55:44.157Z,6.90
2019-05-13T18:58:17.254Z,5.80
2019-05-13T19:00:52.061Z,5.97
2019-05-13T19:03:25.710Z,5.97
2019-05-13T19:05:57.825Z,6.65
2019-05-13T19:08:32.109Z,6.65
2019-05-13T19:11:04.228Z,3.83
2019-05-13T19:13:36.470Z,3.70
2019-05-13T19:16:08.600Z,2.50
2019-05-13T19:18:42.327Z,3.02
2019-05-13T19:21:15.357Z,3.80
2019-05-13T19:23:47.698Z,3.67
2019-05-13T19:26:21.733Z,4.17
2019-05-13T19:28:54.722Z,3.95
2019-05-13T19:31:26.888Z,4.78
2019-05-13T19:34:01.498Z,3.05
2019-05-13T19:36:52.737Z,3.25
2019-05-13T19:39:26.901Z,3.30
2019-05-13T19:41:58.932Z,3.67
2019-05-13T19:44:31.513Z,3.67
2019-05-13T19:47:04.110Z,2.85
2019-05-13T19:49:37.461Z,3.27
2019-05-13T19:52:11.866Z,3.50
2019-05-13T19:54:46.544Z,3.70
2019-05-13T19:57:21.239Z,3.85
2019-05-13T19:59:55.962Z,3.15
2019-05-13T20:02:28.009Z,2.85
2019-05-13T20:05:01.220Z,3.17
2019-05-13T20:07:34.017Z,2.85
2019-05-13T20:10:08.749Z,2.60
2019-05-13T20:12:42.010Z,2.72
2019-05-13T20:15:14.930Z,2.15
2019-05-13T20:17:47.128Z,2.02
2019-05-13T20:20:21.484Z,2.42
2019-05-13T20:22:53.713Z,2.50
2019-05-13T20:25:25.780Z,2.42
2019-05-13T20:28:02.147Z,2.33
2019-05-13T20:30:33.575Z,2.25
2019-05-13T20:33:06.238Z,2.47
2019-05-13T20:35:38.272Z,2.92
2019-05-13T20:38:11.576Z,3.33
2019-05-13T20:40:45.199Z,3.67
2019-05-13T20:43:17.701Z,3.33
2019-05-13T20:45:51.781Z,3.35
2019-05-13T20:48:23.767Z,2.75
2019-05-13T20:50:56.465Z,3.12
2019-05-13T20:53:30.967Z,3.55
2019-05-13T20:56:02.904Z,2.77
2019-05-13T20:58:34.982Z,3.98
2019-05-13T21:01:07.022Z,2.67
2019-05-13T21:03:41.858Z,3.05
2019-05-13T21:06:13.773Z,3.27
2019-05-13T21:08:46.373Z,3.80
2019-05-13T21:11:18.432Z,3.60
2019-05-13T21:13:51.726Z,3.58
2019-05-13T21:16:24.535Z,3.95
2019-05-13T21:18:56.758Z,3.50
2019-05-13T21:21:31.013Z,3.62
2019-05-13T21:24:03.459Z,3.40
2019-05-13T21:26:54.777Z,4.50
2019-05-13T21:29:27.026Z,3.60
2019-05-13T21:32:01.091Z,3.52
2019-05-13T21:34:33.809Z,4.00
2019-05-13T21:37:06.326Z,3.87
2019-05-13T21:39:38.607Z,4.00
2019-05-13T21:42:11.627Z,4.60
2019-05-13T21:44:43.795Z,4.87
2019-05-13T21:47:16.147Z,5.17
2019-05-13T21:49:48.507Z,5.45
2019-05-13T21:52:23.954Z,4.83
2019-05-13T21:54:56.710Z,5.97
2019-05-13T21:57:32.927Z,5.40
2019-05-13T22:00:03.086Z,5.62
2019-05-13T22:02:35.170Z,6.70
2019-05-13T22:05:07.387Z,5.17
2019-05-13T22:07:41.925Z,4.35
2019-05-13T22:10:13.584Z,7.03
2019-05-13T22:12:45.872Z,10.05
2019-05-13T22:15:18.503Z,9.73
2019-05-13T22:17:51.307Z,9.80
2019-05-13T22:20:49.854Z,7.75
2019-05-13T22:23:16.273Z,8.38
2019-05-13T22:25:48.577Z,7.22
2019-05-13T22:28:22.135Z,6.37
2019-05-13T22:30:54.593Z,5.22
2019-05-13T22:33:26.534Z,5.83
2019-05-13T22:35:58.536Z,5.58
2019-05-13T22:38:32.419Z,5.08
2019-05-13T22:41:04.767Z,5.70
2019-05-13T22:43:51.411Z,5.62
2019-05-13T22:46:13.863Z,5.92
2019-05-13T22:48:45.128Z,6.25
2019-05-13T22:51:17.539Z,5.75
2019-05-13T22:53:49.923Z,6.42
2019-05-13T22:56:22.417Z,5.50
2019-05-13T22:58:54.393Z,5.83
2019-05-13T23:01:26.631Z,7.25
2019-05-13T23:03:59.444Z,5.65
2019-05-13T23:06:32.117Z,6.30
2019-05-13T23:09:04.250Z,6.50
2019-05-13T23:11:36.281Z,7.90
2019-05-13T23:14:10.868Z,9.20
2019-05-13T23:16:42.485Z,10.32
2019-05-13T23:19:14.547Z,9.23
2019-05-13T23:21:46.746Z,7.37
2019-05-13T23:24:21.697Z,9.43
2019-05-13T23:26:53.232Z,7.00
2019-05-13T23:29:25.914Z,6.58
2019-05-13T23:31:57.922Z,6.97
2019-05-13T23:34:31.782Z,7.30
2019-05-13T23:37:04.176Z,7.35
2019-05-13T23:39:38.814Z,7.28
2019-05-13T23:42:12.206Z,7.58
2019-05-13T23:44:46.016Z,6.90
2019-05-13T23:47:18.880Z,7.28
2019-05-13T23:49:51.499Z,7.60
2019-05-13T23:52:23.844Z,7.95
2019-05-13T23:54:56.056Z,8.05
2019-05-13T23:57:28.369Z,7.67
